KAPCKHWD

Guest
Details From KAPC - Napa Co
To KHWD - Hayward Executive
Flight Number -
Tags generated
Created
Modified
Stats Distance 34 nm / 63 km
Max Altitude 4,300 ft / 1,311 m
Waypoints 3
Social Downloads 0
Likes 0
Share VATSIM

Download

Looking for another format? Having issues loading an existing format? Contact us
Advertisement - Login to hide

Notes

Basic altitude profile: - Ascent Rate: 2500ft/min - Ascent Speed: 250kts - Cruise Altitude: 35000ft - Cruise Speed: 420kts - Descent Rate: 1500ft/min - Descent Speed: 250kts

Route

KAPC SABLO KHWD

ID Type Via Altitude Latitude Longitude Leg Dist Tot Dist Heading (true) Name
O KAPC APT - 0 ft / 0 m 38.21339˚ -122.28049˚ - 0 nm - Napa Co
SABLO FIX - 4,300 ft / 1,311 m 37.99083˚ -122.20019˚ 13 nm 13 nm 164° / 164° -
O KHWD APT - 0 ft / 0 m 37.65925˚ -122.12193˚ 20 nm 34 nm 169° / 169° Hayward Executive

Altitude Profile

Advertisement - Login to hide

KAPC

Details ICAO KAPC (APC)
Name Napa Co
Region United States
Timezone America/Los_Angeles (UTC-8.0)
Stats Elevation 35 ft / 11 m (AMSL)
Location 38.213392° -122.280489°
Runways 3
Magnetic Variation 13.579° E

METAR

KAPC 151354Z AUTO 01006KT 10SM CLR 04/02 A3018 RMK AO2 SLP212 T00390022

Decode

TAF

Not found

Departure Runways

ID Width Length Bearing (true) Bearing (mag) Surface Threshold Offset Overrun Length
06 151 ft / 46 m 4,998 ft / 1,523 m 76.68° 63.10° Concrete 0 ft / 0 m 0 ft / 0 m
18L 75 ft / 23 m 2,514 ft / 766 m 200.64° 187.06° Asphalt 0 ft / 0 m 0 ft / 0 m
18R 151 ft / 46 m 5,940 ft / 1,810 m 200.66° 187.08° Asphalt 0 ft / 0 m 0 ft / 0 m
24 151 ft / 46 m 4,998 ft / 1,523 m 256.70° 243.12° Concrete 0 ft / 0 m 0 ft / 0 m
36L 151 ft / 46 m 5,940 ft / 1,810 m 20.66° 7.08° Asphalt 0 ft / 0 m 151 ft / 46 m
36R 75 ft / 23 m 2,514 ft / 766 m 20.64° 7.06° Asphalt 0 ft / 0 m 0 ft / 0 m

KHWD

Details ICAO KHWD (HWD)
Name Hayward Executive
Region United States
Timezone America/Los_Angeles (UTC-8.0)
Stats Elevation 52 ft / 16 m (AMSL)
Location 37.659252° -122.121935°
Runways 2
Magnetic Variation 13.434° E

METAR

KHWD 151354Z AUTO 08003KT 8SM CLR 07/01 A3017 RMK AO2 SLP225 T00670006

Decode

TAF

Not found

Destination Runways

ID Width Length Bearing (true) Bearing (mag) Surface Threshold Offset Overrun Length
10L 75 ft / 23 m 3,104 ft / 946 m 119.95° 106.52° Asphalt 0 ft / 0 m 0 ft / 0 m
10R 151 ft / 46 m 5,688 ft / 1,734 m 119.95° 106.52° Asphalt 817 ft / 249 m 0 ft / 0 m
28L 151 ft / 46 m 5,688 ft / 1,734 m 299.96° 286.53° Asphalt 676 ft / 206 m 0 ft / 0 m
28R 75 ft / 23 m 3,104 ft / 946 m 299.96° 286.53° Asphalt 0 ft / 0 m 0 ft / 0 m

Approach Navaids

Runway Type Ident Frequency Range Bearing (true) Bearing (mag) Slope Elevation
28L Localiser IHWD 111.50 MHz 18 nm / 33 km 302.00° 288.57° - 27 ft / 8 m (AMSL)
28L DME IHWD 111.50 MHz 18 nm / 33 km - - - 42 ft / 13 m (AMSL)